Time;durP1;ratioP1;P1;durP2;ratioP2;P2;SDS_P1;SDS_P2;PMS_P1;PMS_P2;Temp;Humidity;BMP_temperature;BMP_pressure;BME280_temperature;BME280_humidity;BME280_pressure;Samples;Min_cycle;Max_cycle;Signal;HPM_P1;HPM_P2
2024/01/14 00:00:08;;;;;;;75.03;33.63;;;3.70;99.90;;;;;;5010052;28;20037;-75
2024/01/14 00:02:35;;;;;;;70.82;33.90;;;3.70;99.90;;;;;;4995274;28;20030;-74
2024/01/14 00:05:02;;;;;;;69.60;32.77;;;3.70;99.90;;;;;;4978590;28;20038;-76
2024/01/14 00:07:28;;;;;;;63.40;30.10;;;3.70;99.90;;;;;;5011266;28;20031;-76
2024/01/14 00:09:55;;;;;;;66.57;32.30;;;3.70;99.90;;;;;;4976899;28;20034;-74
2024/01/14 00:12:21;;;;;;;65.85;30.20;;;3.70;99.90;;;;;;4960880;28;20037;-74
2024/01/14 00:14:48;;;;;;;65.90;30.88;;;3.70;99.90;;;;;;4961272;28;20042;-74
2024/01/14 00:17:14;;;;;;;61.83;29.20;;;3.70;99.90;;;;;;4962233;28;20518;-75
2024/01/14 00:19:40;;;;;;;59.60;30.48;;;3.70;99.90;;;;;;4961066;28;20038;-75
2024/01/14 00:22:07;;;;;;;60.40;28.42;;;3.70;99.90;;;;;;5010568;28;20406;-77
2024/01/14 00:24:33;;;;;;;61.28;30.33;;;3.70;99.90;;;;;;4960450;28;20038;-75
2024/01/14 00:26:59;;;;;;;66.22;30.33;;;3.70;99.90;;;;;;4978748;28;20030;-74
2024/01/14 00:29:26;;;;;;;63.75;29.83;;;3.70;99.90;;;;;;5009162;28;20043;-75
2024/01/14 00:31:52;;;;;;;58.05;29.80;;;3.70;99.90;;;;;;4960824;28;20456;-75
2024/01/14 00:34:18;;;;;;;68.80;31.58;;;3.70;99.90;;;;;;4960655;28;20061;-75
2024/01/14 00:36:45;;;;;;;65.78;31.92;;;3.70;99.90;;;;;;5008335;28;20034;-74
2024/01/14 00:39:11;;;;;;;65.15;32.25;;;3.70;99.90;;;;;;4959603;28;20053;-75
2024/01/14 00:41:37;;;;;;;70.55;31.13;;;3.70;99.90;;;;;;5008928;28;20448;-76
2024/01/14 00:44:04;;;;;;;57.50;27.50;;;3.70;99.90;;;;;;4978965;28;20057;-75
2024/01/14 00:46:31;;;;;;;70.00;30.73;;;3.70;99.90;;;;;;4976172;28;20056;-75
2024/01/14 00:48:58;;;;;;;54.65;27.75;;;3.70;99.90;;;;;;4975763;28;20045;-75
2024/01/14 00:51:24;;;;;;;58.45;27.80;;;3.70;99.90;;;;;;4958394;28;20050;-75
2024/01/14 00:53:51;;;;;;;56.78;26.83;;;3.70;99.90;;;;;;4975871;28;20366;-75
2024/01/14 00:56:18;;;;;;;55.22;25.27;;;3.70;99.90;;;;;;4976720;28;20030;-75
2024/01/14 00:58:44;;;;;;;58.00;27.13;;;3.70;99.90;;;;;;4958814;28;20034;-75
2024/01/14 01:01:10;;;;;;;54.85;26.45;;;3.70;99.90;;;;;;4959067;28;20062;-75
2024/01/14 01:03:37;;;;;;;52.65;24.00;;;3.60;99.90;;;;;;5008140;28;20041;-75
2024/01/14 01:06:03;;;;;;;58.63;26.38;;;3.60;99.90;;;;;;4975646;28;20042;-76
2024/01/14 01:08:30;;;;;;;60.95;26.77;;;3.60;99.90;;;;;;4974227;28;20397;-74
2024/01/14 01:10:56;;;;;;;57.25;26.52;;;3.60;99.90;;;;;;4975421;28;20030;-75
2024/01/14 01:13:22;;;;;;;58.13;25.60;;;3.70;99.90;;;;;;4976715;28;20035;-76
2024/01/14 01:15:49;;;;;;;50.97;24.98;;;3.70;99.90;;;;;;5009595;28;20045;-76
2024/01/14 01:18:16;;;;;;;58.38;27.02;;;3.60;99.90;;;;;;4964024;28;20686;-75
2024/01/14 01:20:42;;;;;;;51.83;24.65;;;3.60;99.90;;;;;;4996652;28;20046;-75
2024/01/14 01:23:08;;;;;;;54.10;25.75;;;3.70;99.90;;;;;;4963122;28;20038;-75
2024/01/14 01:25:35;;;;;;;57.72;25.90;;;3.70;99.90;;;;;;4981325;28;20401;-76
2024/01/14 01:28:01;;;;;;;64.18;29.33;;;3.70;99.90;;;;;;4978469;28;20030;-75
2024/01/14 01:30:28;;;;;;;66.88;30.55;;;3.70;99.90;;;;;;4962308;28;20041;-74
2024/01/14 01:32:54;;;;;;;76.70;32.30;;;3.70;99.90;;;;;;4964004;28;20069;-76
2024/01/14 01:35:20;;;;;;;69.70;29.67;;;3.70;99.90;;;;;;5012121;28;20053;-76
2024/01/14 01:37:47;;;;;;;65.80;29.73;;;3.70;99.90;;;;;;5011078;28;20382;-74
2024/01/14 01:40:13;;;;;;;60.72;26.80;;;3.70;99.90;;;;;;4995712;28;20512;-75
2024/01/14 01:42:41;;;;;;;71.10;30.90;;;3.70;99.90;;;;;;4979168;28;20050;-72
2024/01/14 01:45:09;;;;;;;79.47;32.42;;;3.70;99.90;;;;;;4964096;28;20042;-75
2024/01/14 01:47:35;;;;;;;68.25;29.85;;;3.70;99.90;;;;;;4981287;28;20478;-76
2024/01/14 01:50:02;;;;;;;65.97;30.80;;;3.70;99.90;;;;;;4943553;28;20034;-74
2024/01/14 01:52:29;;;;;;;64.43;29.58;;;3.70;99.90;;;;;;4993469;28;20050;-75
2024/01/14 01:54:56;;;;;;;59.92;27.85;;;3.70;99.90;;;;;;4980358;28;20034;-75
2024/01/14 01:57:23;;;;;;;79.53;33.93;;;3.70;99.90;;;;;;5011723;28;20026;-75
2024/01/14 01:59:51;;;;;;;72.13;30.77;;;3.70;99.90;;;;;;4977978;28;20044;-76
2024/01/14 02:02:21;;;;;;;69.20;29.70;;;3.70;99.90;;;;;;4994815;28;20034;-76
2024/01/14 02:04:47;;;;;;;67.05;29.98;;;3.70;99.90;;;;;;4994884;28;20045;-75
2024/01/14 02:07:15;;;;;;;69.60;30.20;;;3.70;99.90;;;;;;4978530;28;20558;-76
2024/01/14 02:09:41;;;;;;;64.63;30.13;;;3.60;99.90;;;;;;4978779;28;20035;-75
2024/01/14 02:12:08;;;;;;;59.25;31.35;;;3.70;99.90;;;;;;4979167;28;20383;-77
2024/01/14 02:14:34;;;;;;;72.68;32.72;;;3.70;99.90;;;;;;4963559;28;20034;-76
2024/01/14 02:17:01;;;;;;;65.30;31.08;;;3.60;99.90;;;;;;5012939;28;20477;-77
2024/01/14 02:19:27;;;;;;;65.78;31.10;;;3.60;99.90;;;;;;4962520;28;20046;-74
2024/01/14 02:22:03;;;;;;;72.55;32.50;;;3.60;99.90;;;;;;4978026;28;20042;-75
2024/01/14 02:24:36;;;;;;;69.38;32.78;;;3.60;99.90;;;;;;4962911;28;20030;-75
2024/01/14 02:27:02;;;;;;;77.38;35.20;;;3.60;99.90;;;;;;4950621;28;20049;-76
2024/01/14 02:29:29;;;;;;;69.88;33.63;;;3.60;99.90;;;;;;4994498;28;20034;-77
2024/01/14 02:31:56;;;;;;;76.70;34.88;;;3.60;99.90;;;;;;4978987;28;20034;-77
2024/01/14 02:34:23;;;;;;;73.25;33.85;;;3.60;99.90;;;;;;4994793;28;20042;-76
2024/01/14 02:36:49;;;;;;;81.82;34.75;;;3.60;99.90;;;;;;4995302;28;20034;-77
2024/01/14 02:39:16;;;;;;;73.85;31.98;;;3.60;99.90;;;;;;4978362;28;20038;-76
2024/01/14 02:41:43;;;;;;;79.63;35.30;;;3.60;99.90;;;;;;4994750;28;20057;-76
2024/01/14 02:44:09;;;;;;;101.15;38.83;;;3.60;99.90;;;;;;5007062;28;20038;-75
2024/01/14 02:46:36;;;;;;;80.85;35.58;;;3.70;99.90;;;;;;4993865;28;20512;-75
2024/01/14 02:49:02;;;;;;;82.20;35.28;;;3.60;99.90;;;;;;4978232;28;20050;-75
2024/01/14 02:51:28;;;;;;;85.68;36.50;;;3.60;99.90;;;;;;4979583;28;20042;-76
2024/01/14 02:53:55;;;;;;;88.50;37.30;;;3.70;99.90;;;;;;4995600;28;20035;-75
2024/01/14 02:56:21;;;;;;;89.47;39.25;;;3.60;99.90;;;;;;4991177;28;20030;-75
2024/01/14 02:58:47;;;;;;;97.93;42.47;;;3.70;99.90;;;;;;5011904;28;20034;-76
2024/01/14 03:01:14;;;;;;;91.50;39.60;;;3.60;99.90;;;;;;4979533;28;20049;-76
2024/01/14 03:03:40;;;;;;;85.65;36.60;;;3.70;99.90;;;;;;5010114;28;20474;-78
2024/01/14 03:06:07;;;;;;;87.80;37.00;;;3.60;99.90;;;;;;4993461;28;20071;-77
2024/01/14 03:08:33;;;;;;;128.88;48.03;;;3.60;99.90;;;;;;5009196;28;20031;-75
2024/01/14 03:11:00;;;;;;;98.05;42.20;;;3.60;99.90;;;;;;5009382;28;20038;-76
2024/01/14 03:13:26;;;;;;;106.07;46.72;;;3.60;99.90;;;;;;4977015;28;20037;-77
2024/01/14 03:15:53;;;;;;;121.35;50.05;;;3.60;99.90;;;;;;4977426;28;20030;-76
2024/01/14 03:18:19;;;;;;;120.17;49.57;;;3.60;99.90;;;;;;4975990;28;20038;-76
2024/01/14 03:20:47;;;;;;;131.85;50.78;;;3.60;99.90;;;;;;4992959;28;20038;-76
2024/01/14 03:23:13;;;;;;;102.50;46.30;;;3.50;99.90;;;;;;4960461;28;20043;-77
2024/01/14 03:25:39;;;;;;;102.50;45.78;;;3.50;99.90;;;;;;4960163;28;20030;-75
2024/01/14 03:28:06;;;;;;;90.38;40.22;;;3.50;99.90;;;;;;4958388;28;20042;-75
2024/01/14 03:30:32;;;;;;;99.03;42.78;;;3.50;99.90;;;;;;4960015;28;20705;-76
2024/01/14 03:32:58;;;;;;;91.20;41.95;;;3.50;99.90;;;;;;4978713;28;20037;-76
2024/01/14 03:35:24;;;;;;;88.28;41.38;;;3.50;99.90;;;;;;4977095;28;20045;-76
2024/01/14 03:37:51;;;;;;;91.28;41.42;;;3.50;99.90;;;;;;4976579;28;20039;-76
2024/01/14 03:40:18;;;;;;;86.28;38.88;;;3.50;99.90;;;;;;4977745;28;20045;-74
2024/01/14 03:42:44;;;;;;;98.43;46.25;;;3.50;99.90;;;;;;4976902;28;20042;-76
2024/01/14 03:45:10;;;;;;;111.83;48.00;;;3.50;99.90;;;;;;4960770;28;20061;-75
2024/01/14 03:47:37;;;;;;;113.57;47.90;;;3.50;99.90;;;;;;4977590;28;20026;-76
2024/01/14 03:50:03;;;;;;;128.52;54.17;;;3.50;99.90;;;;;;4977071;28;20035;-75
2024/01/14 03:52:30;;;;;;;119.72;51.25;;;3.50;99.90;;;;;;5010111;28;20034;-76
2024/01/14 03:54:56;;;;;;;121.63;50.47;;;3.40;99.90;;;;;;4976435;28;20046;-76
2024/01/14 03:57:22;;;;;;;126.78;52.67;;;3.40;99.90;;;;;;4978693;28;20034;-76
2024/01/14 03:59:49;;;;;;;124.78;53.90;;;3.40;99.90;;;;;;4977037;28;20371;-76
2024/01/14 04:02:15;;;;;;;124.05;53.20;;;3.40;99.90;;;;;;5009310;28;20031;-74
2024/01/14 04:04:41;;;;;;;143.70;57.22;;;3.40;99.90;;;;;;4972713;28;20038;-77
2024/01/14 04:07:08;;;;;;;141.52;56.83;;;3.40;99.90;;;;;;5010172;28;20041;-76
2024/01/14 04:09:35;;;;;;;114.03;51.95;;;3.40;99.90;;;;;;4976665;28;20489;-76
2024/01/14 04:12:01;;;;;;;121.70;50.03;;;3.40;99.90;;;;;;4960870;28;20302;-75
2024/01/14 04:14:28;;;;;;;121.78;51.72;;;3.30;99.90;;;;;;4959872;28;20042;-75
2024/01/14 04:16:55;;;;;;;128.48;51.97;;;3.30;99.90;;;;;;4960946;28;20038;-75
2024/01/14 04:19:21;;;;;;;124.97;51.15;;;3.30;99.90;;;;;;4960894;28;20552;-76
2024/01/14 04:21:48;;;;;;;119.55;48.97;;;3.30;99.90;;;;;;4977051;28;20033;-76
2024/01/14 04:24:15;;;;;;;121.72;49.78;;;3.20;99.90;;;;;;4977459;28;20421;-76
2024/01/14 04:26:41;;;;;;;130.00;54.70;;;3.30;99.90;;;;;;4976596;28;20549;-77
2024/01/14 04:29:07;;;;;;;109.57;47.45;;;3.20;99.90;;;;;;4959931;28;20034;-75
2024/01/14 04:31:34;;;;;;;112.80;49.15;;;3.20;99.90;;;;;;4977882;28;20469;-76
2024/01/14 04:34:03;;;;;;;144.93;55.63;;;3.30;99.90;;;;;;4960312;28;20373;-74
2024/01/14 04:36:29;;;;;;;126.88;52.85;;;3.20;99.90;;;;;;4976369;28;20045;-76
2024/01/14 04:38:56;;;;;;;112.32;47.58;;;3.20;99.90;;;;;;4992232;28;20042;-77
2024/01/14 04:41:22;;;;;;;130.85;52.63;;;3.20;99.90;;;;;;4977005;28;20042;-76
2024/01/14 04:43:49;;;;;;;112.80;49.05;;;3.20;99.90;;;;;;4975730;28;20042;-76
2024/01/14 04:46:15;;;;;;;118.55;49.67;;;3.20;99.90;;;;;;4962290;28;20481;-76
2024/01/14 04:48:41;;;;;;;122.73;49.37;;;3.20;99.90;;;;;;4959592;28;20088;-76
2024/01/14 04:51:08;;;;;;;113.97;46.00;;;3.20;99.90;;;;;;4981882;28;20034;-76
2024/01/14 04:53:35;;;;;;;119.47;49.35;;;3.20;99.90;;;;;;4981476;28;20038;-76
2024/01/14 04:56:05;;;;;;;126.15;50.55;;;3.20;99.90;;;;;;4981825;28;20031;-77
2024/01/14 04:58:32;;;;;;;124.60;50.53;;;3.20;99.90;;;;;;4954728;28;20037;-77
2024/01/14 05:00:58;;;;;;;132.40;54.73;;;3.20;99.90;;;;;;4964138;28;20389;-76
2024/01/14 05:03:24;;;;;;;138.95;54.25;;;3.10;99.90;;;;;;4964030;28;20034;-77
2024/01/14 05:05:51;;;;;;;124.20;49.50;;;3.20;99.90;;;;;;4996620;28;20038;-75
2024/01/14 05:08:17;;;;;;;165.55;61.58;;;3.20;99.90;;;;;;5012118;28;20038;-77
2024/01/14 05:10:44;;;;;;;132.32;54.40;;;3.20;99.90;;;;;;4997487;28;20402;-76
2024/01/14 05:13:11;;;;;;;177.15;63.38;;;3.10;99.90;;;;;;4996687;28;20042;-76
2024/01/14 05:15:38;;;;;;;141.00;58.45;;;3.20;99.90;;;;;;4996847;28;20557;-74
2024/01/14 05:18:05;;;;;;;126.03;55.60;;;3.10;99.90;;;;;;4982237;28;20041;-76
2024/01/14 05:20:32;;;;;;;134.88;53.83;;;3.10;99.90;;;;;;4948833;28;20462;-76
2024/01/14 05:22:58;;;;;;;119.53;53.58;;;3.10;99.90;;;;;;5012825;28;20507;-77
2024/01/14 05:25:24;;;;;;;124.00;53.08;;;3.10;99.90;;;;;;5012001;28;20478;-75
2024/01/14 05:27:51;;;;;;;148.23;56.05;;;3.10;99.90;;;;;;5012037;28;20057;-77
2024/01/14 05:30:17;;;;;;;134.98;56.92;;;3.10;99.90;;;;;;4981379;28;20050;-76
2024/01/14 05:32:43;;;;;;;132.98;55.42;;;3.00;99.90;;;;;;4979678;28;20038;-76
2024/01/14 05:35:10;;;;;;;137.93;53.50;;;3.10;99.90;;;;;;4963934;28;20393;-76
2024/01/14 05:37:36;;;;;;;133.35;52.42;;;3.10;99.90;;;;;;4991554;28;20402;-75
2024/01/14 05:40:05;;;;;;;116.43;47.73;;;3.10;99.90;;;;;;4981552;28;21020;-76
2024/01/14 05:42:31;;;;;;;158.50;57.38;;;3.10;99.90;;;;;;5012419;28;20049;-76
2024/01/14 05:44:57;;;;;;;142.77;54.50;;;3.10;99.90;;;;;;4964313;28;20034;-74
2024/01/14 05:47:24;;;;;;;128.13;52.85;;;3.10;99.90;;;;;;4980969;28;20478;-76
2024/01/14 05:49:50;;;;;;;133.77;54.90;;;3.00;99.90;;;;;;4979388;28;20034;-76
2024/01/14 05:52:16;;;;;;;123.53;51.10;;;3.00;99.90;;;;;;4980442;28;20030;-77
2024/01/14 05:54:46;;;;;;;155.40;56.63;;;3.00;99.90;;;;;;4963546;28;20034;-76
2024/01/14 05:57:12;;;;;;;126.80;51.93;;;3.00;99.90;;;;;;4979372;28;20049;-76
2024/01/14 05:59:40;;;;;;;123.05;48.80;;;3.00;99.90;;;;;;4978540;28;20057;-76
2024/01/14 06:02:06;;;;;;;127.32;50.25;;;3.00;99.90;;;;;;4990517;28;20038;-76
2024/01/14 06:04:32;;;;;;;129.68;50.35;;;3.00;99.90;;;;;;4981555;28;20417;-76
2024/01/14 06:06:59;;;;;;;113.65;47.72;;;3.00;99.90;;;;;;4963622;28;20034;-76
2024/01/14 06:09:25;;;;;;;114.93;47.22;;;3.00;99.90;;;;;;4995457;28;20118;-76
2024/01/14 06:11:52;;;;;;;108.82;45.20;;;3.00;99.90;;;;;;4980232;28;20473;-76
2024/01/14 06:14:19;;;;;;;125.57;47.85;;;3.00;99.90;;;;;;4979331;28;20034;-76
2024/01/14 06:16:45;;;;;;;114.90;49.67;;;3.00;99.90;;;;;;4994837;28;20042;-76
2024/01/14 06:19:12;;;;;;;118.30;47.73;;;3.00;99.90;;;;;;4961821;28;20039;-76
2024/01/14 06:21:42;;;;;;;105.18;45.83;;;2.90;99.90;;;;;;4978936;28;20030;-75
2024/01/14 06:24:12;;;;;;;111.72;47.20;;;2.90;99.90;;;;;;4979764;28;20026;-76
2024/01/14 06:26:38;;;;;;;121.70;49.25;;;2.90;99.90;;;;;;4996207;28;20517;-76
2024/01/14 06:29:06;;;;;;;110.35;46.17;;;2.90;99.90;;;;;;4979981;28;20116;-77
2024/01/14 06:31:32;;;;;;;96.47;41.13;;;2.90;99.90;;;;;;5011583;28;20250;-76
2024/01/14 06:33:59;;;;;;;101.15;41.60;;;2.90;99.90;;;;;;4978877;28;20485;-77
2024/01/14 06:36:26;;;;;;;113.13;45.97;;;2.90;99.90;;;;;;5011677;28;20038;-77
2024/01/14 06:38:52;;;;;;;133.82;52.28;;;2.90;99.90;;;;;;4994737;28;20046;-77
2024/01/14 06:41:25;;;;;;;118.30;47.47;;;2.90;99.90;;;;;;4977495;28;20034;-76
2024/01/14 06:43:51;;;;;;;108.07;44.85;;;2.80;99.90;;;;;;4978166;28;20042;-77
2024/01/14 06:46:18;;;;;;;113.22;47.05;;;2.80;99.90;;;;;;5011095;28;20045;-75
2024/01/14 06:48:44;;;;;;;107.55;45.05;;;2.80;99.90;;;;;;4961993;28;20042;-76
2024/01/14 06:51:10;;;;;;;100.50;43.17;;;2.80;99.90;;;;;;4979032;28;20038;-76
2024/01/14 06:53:37;;;;;;;109.65;45.55;;;2.80;99.90;;;;;;4962029;28;20049;-76
2024/01/14 06:56:04;;;;;;;123.87;48.23;;;2.80;99.90;;;;;;4993891;28;20114;-76
2024/01/14 06:58:30;;;;;;;112.53;47.57;;;2.70;99.90;;;;;;4945822;28;20042;-76
2024/01/14 07:00:56;;;;;;;111.53;44.67;;;2.80;99.90;;;;;;4961765;28;20403;-76
2024/01/14 07:03:23;;;;;;;111.63;45.47;;;2.70;99.90;;;;;;4993388;28;20474;-76
2024/01/14 07:05:49;;;;;;;110.10;45.43;;;2.70;99.90;;;;;;4977981;28;20030;-77
2024/01/14 07:08:15;;;;;;;106.03;42.63;;;2.70;99.90;;;;;;4944990;28;20038;-76
2024/01/14 07:10:42;;;;;;;118.10;46.07;;;2.70;99.90;;;;;;4994129;28;20034;-76
2024/01/14 07:13:08;;;;;;;101.50;44.23;;;2.70;99.90;;;;;;4979570;28;20045;-76
2024/01/14 07:15:34;;;;;;;93.87;42.17;;;2.70;99.90;;;;;;4957747;28;20501;-75
2024/01/14 07:18:02;;;;;;;108.90;45.22;;;2.70;99.90;;;;;;4977261;28;20049;-76
2024/01/14 07:20:28;;;;;;;109.37;46.60;;;2.70;99.90;;;;;;4977794;28;20493;-76
2024/01/14 07:22:55;;;;;;;113.13;46.15;;;2.70;99.90;;;;;;4977466;28;20049;-76
2024/01/14 07:25:21;;;;;;;111.13;45.58;;;2.70;99.90;;;;;;4978826;28;20493;-75
2024/01/14 07:27:47;;;;;;;125.73;49.47;;;2.70;99.90;;;;;;4993849;28;20045;-77
2024/01/14 07:30:17;;;;;;;118.25;47.42;;;2.70;99.90;;;;;;4978284;28;20473;-77
2024/01/14 07:32:45;;;;;;;130.13;52.67;;;2.70;99.90;;;;;;4978401;28;21095;-77
2024/01/14 07:35:12;;;;;;;117.90;47.47;;;2.70;99.90;;;;;;4978969;28;20030;-77
2024/01/14 07:37:38;;;;;;;119.87;48.93;;;2.60;99.90;;;;;;4994028;28;20034;-74
2024/01/14 07:40:05;;;;;;;121.95;48.80;;;2.70;99.90;;;;;;4993682;28;20038;-77
2024/01/14 07:42:31;;;;;;;119.10;46.97;;;2.70;99.90;;;;;;4960681;28;20046;-76
2024/01/14 07:44:58;;;;;;;140.10;54.97;;;2.70;99.90;;;;;;4993581;28;20049;-77
2024/01/14 07:47:24;;;;;;;140.20;56.73;;;2.70;99.90;;;;;;5010128;28;20386;-77
2024/01/14 07:49:50;;;;;;;134.32;54.05;;;2.70;99.90;;;;;;4980054;28;20026;-76
2024/01/14 07:52:17;;;;;;;132.80;52.80;;;2.60;99.90;;;;;;4979623;28;20034;-77
2024/01/14 07:54:44;;;;;;;142.60;55.77;;;2.70;99.90;;;;;;4963459;28;20034;-76
2024/01/14 07:57:10;;;;;;;136.47;54.90;;;2.60;99.90;;;;;;5010811;28;20023;-76
2024/01/14 07:59:37;;;;;;;140.73;54.58;;;2.70;99.90;;;;;;4958528;28;20038;-76
2024/01/14 08:02:03;;;;;;;131.32;53.35;;;2.70;99.90;;;;;;4976890;28;20497;-77
2024/01/14 08:04:30;;;;;;;145.43;56.80;;;2.70;99.90;;;;;;4961706;28;20053;-75
2024/01/14 08:06:56;;;;;;;138.13;54.30;;;2.70;99.90;;;;;;5008876;28;20034;-76
2024/01/14 08:09:22;;;;;;;130.30;51.33;;;2.70;99.90;;;;;;4977936;28;20410;-76
2024/01/14 08:11:49;;;;;;;132.98;53.40;;;2.70;99.90;;;;;;4989262;28;20478;-76
2024/01/14 08:14:15;;;;;;;135.75;54.88;;;2.70;99.90;;;;;;4977527;28;20500;-76
2024/01/14 08:16:41;;;;;;;135.52;52.20;;;2.70;99.90;;;;;;4975472;28;20101;-74
2024/01/14 08:19:09;;;;;;;134.95;52.25;;;2.70;99.90;;;;;;4959009;28;20033;-75
2024/01/14 08:21:35;;;;;;;131.68;53.13;;;2.70;99.90;;;;;;4958775;28;20030;-75
2024/01/14 08:24:03;;;;;;;131.73;52.28;;;2.80;99.90;;;;;;4978086;28;20057;-77
2024/01/14 08:26:30;;;;;;;180.77;63.25;;;2.80;99.90;;;;;;4959650;28;20038;-77
2024/01/14 08:28:56;;;;;;;157.85;59.67;;;2.80;99.90;;;;;;4958495;28;20034;-76
2024/01/14 08:31:22;;;;;;;145.63;58.10;;;2.70;99.90;;;;;;4976531;28;20034;-77
2024/01/14 08:33:49;;;;;;;142.52;56.42;;;2.70;99.90;;;;;;4976032;28;20035;-77
2024/01/14 08:36:15;;;;;;;138.90;55.23;;;2.70;99.90;;;;;;4961099;28;20347;-79
2024/01/14 08:38:41;;;;;;;137.73;55.95;;;2.70;99.90;;;;;;4976996;28;20026;-78
2024/01/14 08:41:09;;;;;;;127.88;51.92;;;2.80;99.90;;;;;;4959131;28;20027;-76
2024/01/14 08:43:35;;;;;;;125.88;53.67;;;2.80;99.90;;;;;;4992464;28;20520;-78
2024/01/14 08:46:02;;;;;;;136.68;55.00;;;2.80;99.90;;;;;;5008383;28;20060;-79
2024/01/14 08:48:29;;;;;;;130.48;54.42;;;2.80;99.90;;;;;;4959322;28;20026;-76
2024/01/14 08:50:56;;;;;;;132.77;52.60;;;2.80;99.90;;;;;;4972342;28;20026;-77
2024/01/14 08:53:22;;;;;;;137.70;52.60;;;2.80;99.90;;;;;;4961042;28;20037;-78
2024/01/14 08:55:49;;;;;;;131.82;53.28;;;2.80;99.90;;;;;;4975518;28;20041;-78
2024/01/14 08:58:15;;;;;;;130.43;53.70;;;2.80;99.90;;;;;;4958982;28;20054;-78
2024/01/14 09:00:42;;;;;;;131.95;52.25;;;2.80;99.90;;;;;;5008751;28;20381;-76
2024/01/14 09:03:08;;;;;;;132.70;53.80;;;2.80;99.90;;;;;;4976364;28;20541;-77
2024/01/14 09:05:34;;;;;;;128.43;51.95;;;2.80;99.90;;;;;;5006971;28;20041;-78
2024/01/14 09:08:01;;;;;;;154.40;57.15;;;2.80;99.90;;;;;;4958940;28;20038;-75
2024/01/14 09:10:27;;;;;;;147.20;58.05;;;2.80;99.90;;;;;;5008372;28;20500;-76
2024/01/14 09:12:53;;;;;;;147.57;57.95;;;2.80;99.90;;;;;;4954924;28;20034;-75
2024/01/14 09:15:20;;;;;;;139.95;55.83;;;2.80;99.90;;;;;;5008092;28;20050;-77
2024/01/14 09:17:46;;;;;;;123.70;50.83;;;2.80;99.90;;;;;;4957893;28;20030;-75
2024/01/14 09:20:13;;;;;;;135.05;56.78;;;2.90;99.90;;;;;;4973816;28;20054;-76
2024/01/14 09:22:39;;;;;;;141.93;57.00;;;2.90;99.90;;;;;;4959973;28;20122;-75
2024/01/14 09:25:06;;;;;;;147.47;58.37;;;2.90;99.90;;;;;;4959522;28;20437;-76
2024/01/14 09:27:34;;;;;;;142.60;56.55;;;2.90;99.90;;;;;;4991218;28;20042;-75
2024/01/14 09:30:01;;;;;;;137.80;53.67;;;2.90;99.90;;;;;;4990946;28;20038;-74
2024/01/14 09:32:27;;;;;;;140.17;55.83;;;2.90;99.90;;;;;;4974387;28;20033;-75
2024/01/14 09:34:54;;;;;;;140.63;56.00;;;2.90;99.90;;;;;;4959792;28;20509;-76
2024/01/14 09:37:20;;;;;;;137.93;54.63;;;2.90;99.90;;;;;;4976316;28;20046;-76
2024/01/14 09:39:47;;;;;;;130.95;52.55;;;3.00;99.90;;;;;;4962580;28;20508;-77
2024/01/14 09:42:32;;;;;;;126.35;51.40;;;3.00;99.90;;;;;;4994670;28;20038;-76
2024/01/14 09:45:00;;;;;;;110.97;46.45;;;3.00;99.90;;;;;;4995937;28;20061;-76
2024/01/14 09:47:27;;;;;;;115.93;49.43;;;3.00;99.90;;;;;;4963260;28;20030;-76
2024/01/14 09:49:54;;;;;;;131.50;54.03;;;3.00;99.90;;;;;;4976186;28;20423;-75
2024/01/14 09:52:22;;;;;;;118.13;49.00;;;3.00;99.90;;;;;;4982495;28;20030;-76
2024/01/14 09:54:48;;;;;;;117.23;50.73;;;3.00;99.90;;;;;;4981026;28;20033;-75
2024/01/14 09:57:18;;;;;;;121.32;50.90;;;3.00;99.90;;;;;;4964160;28;20045;-76
2024/01/14 09:59:46;;;;;;;114.18;48.25;;;3.00;99.90;;;;;;4979282;28;20034;-75
2024/01/14 10:02:12;;;;;;;109.32;46.78;;;3.00;99.90;;;;;;5011258;28;20041;-77
2024/01/14 10:04:43;;;;;;;111.97;48.03;;;3.00;99.90;;;;;;4961675;28;20034;-76
2024/01/14 10:07:10;;;;;;;121.70;51.67;;;3.00;99.90;;;;;;4980613;28;20049;-76
2024/01/14 10:09:39;;;;;;;108.07;46.90;;;3.00;99.90;;;;;;4962319;28;20405;-76
2024/01/14 10:12:08;;;;;;;114.60;49.97;;;3.10;99.90;;;;;;4979109;28;20493;-76
2024/01/14 10:14:36;;;;;;;119.28;52.60;;;3.10;99.90;;;;;;4980774;28;20049;-75
2024/01/14 10:17:03;;;;;;;115.82;49.20;;;3.10;99.90;;;;;;4995651;28;20023;-76
2024/01/14 10:19:30;;;;;;;110.97;47.00;;;3.10;99.90;;;;;;5011812;28;20037;-76
2024/01/14 10:21:57;;;;;;;112.83;49.07;;;3.10;99.90;;;;;;4995279;28;20405;-75
2024/01/14 10:24:23;;;;;;;108.93;48.25;;;3.20;99.90;;;;;;4995773;28;20042;-76
2024/01/14 10:26:54;;;;;;;123.10;51.72;;;3.20;99.90;;;;;;4979251;28;20057;-80
2024/01/14 10:29:21;;;;;;;123.53;52.70;;;3.20;99.90;;;;;;4980579;28;20481;-76
2024/01/14 10:31:50;;;;;;;124.60;54.00;;;3.20;99.90;;;;;;5011285;28;20453;-76
2024/01/14 10:34:17;;;;;;;108.97;50.65;;;3.20;99.90;;;;;;5009262;28;20108;-77
2024/01/14 10:36:43;;;;;;;121.20;49.40;;;3.20;99.90;;;;;;4994668;28;20038;-76
2024/01/14 10:39:12;;;;;;;107.15;46.95;;;3.30;99.90;;;;;;5009720;28;20614;-76
2024/01/14 10:41:39;;;;;;;130.68;54.15;;;3.20;99.90;;;;;;4960988;28;20038;-77
2024/01/14 10:44:06;;;;;;;124.05;52.05;;;3.20;99.90;;;;;;4978484;28;20031;-78
2024/01/14 10:46:34;;;;;;;158.52;60.45;;;3.20;99.90;;;;;;4977898;28;20042;-77
2024/01/14 10:49:08;;;;;;;131.60;55.42;;;3.20;99.90;;;;;;4993514;28;20098;-77
2024/01/14 10:51:42;;;;;;;132.13;52.50;;;3.20;99.90;;;;;;4994774;28;20026;-77
2024/01/14 10:54:14;;;;;;;134.07;55.97;;;3.20;99.90;;;;;;4994349;28;20508;-77
2024/01/14 10:56:48;;;;;;;127.40;56.15;;;3.20;99.90;;;;;;4996988;28;20036;-76
2024/01/14 10:59:16;;;;;;;141.17;56.60;;;3.10;99.90;;;;;;4961075;28;20046;-76
2024/01/14 11:01:49;;;;;;;134.60;54.30;;;3.20;99.90;;;;;;4941859;28;20066;-76
2024/01/14 11:04:21;;;;;;;130.93;54.60;;;3.10;99.90;;;;;;4992108;28;20320;-77
2024/01/14 11:06:48;;;;;;;115.43;47.70;;;3.10;99.90;;;;;;4977429;28;20051;-76
2024/01/14 11:09:15;;;;;;;115.18;48.38;;;3.10;99.90;;;;;;4993047;28;20037;-76
2024/01/14 11:12:01;;;;;;;130.27;51.97;;;3.10;99.90;;;;;;4961500;28;20034;-76
2024/01/14 11:14:59;;;;;;;116.55;48.90;;;3.10;99.90;;;;;;4978553;28;22262;-76
2024/01/14 11:17:44;;;;;;;107.95;46.15;;;3.20;99.90;;;;;;4973487;28;20042;-77
2024/01/14 11:20:15;;;;;;;108.28;45.17;;;3.20;99.90;;;;;;4944733;28;20356;-75
2024/01/14 11:22:42;;;;;;;116.50;47.63;;;3.20;99.90;;;;;;4961290;28;20042;-76
2024/01/14 11:25:16;;;;;;;114.10;49.38;;;3.20;99.90;;;;;;4942512;28;20453;-76
2024/01/14 11:27:43;;;;;;;129.90;50.40;;;3.20;99.90;;;;;;4992231;28;20478;-75
2024/01/14 11:30:19;;;;;;;119.70;48.88;;;3.30;99.90;;;;;;4961027;28;20730;-75
2024/01/14 11:32:45;;;;;;;114.75;48.92;;;3.30;99.90;;;;;;4991441;28;20064;-76
2024/01/14 11:35:33;;;;;;;122.35;51.75;;;3.30;99.90;;;;;;4978598;28;20334;-75
2024/01/14 11:37:59;;;;;;;112.43;46.95;;;3.30;99.90;;;;;;4976997;28;20038;-77
2024/01/14 11:40:30;;;;;;;114.85;49.65;;;3.30;99.90;;;;;;4960544;28;20034;-76
2024/01/14 11:43:00;;;;;;;123.53;49.28;;;3.20;99.90;;;;;;4978872;28;20030;-75
2024/01/14 11:45:26;;;;;;;102.47;46.03;;;3.20;99.90;;;;;;4993657;28;20753;-76
2024/01/14 11:47:55;;;;;;;109.53;46.07;;;3.30;99.90;;;;;;4959695;28;20057;-76
2024/01/14 11:50:23;;;;;;;126.55;51.85;;;3.30;99.90;;;;;;4958332;28;20042;-76
2024/01/14 11:52:56;;;;;;;118.03;50.33;;;3.30;99.90;;;;;;4995373;28;20018;-77
2024/01/14 11:55:29;;;;;;;115.07;50.08;;;3.30;99.90;;;;;;4961450;28;20034;-77
2024/01/14 11:58:11;;;;;;;126.03;51.15;;;3.30;99.90;;;;;;4992485;28;20038;-77
2024/01/14 12:00:38;;;;;;;119.43;49.25;;;3.30;99.90;;;;;;4991992;28;20042;-76
2024/01/14 12:03:14;;;;;;;120.78;48.72;;;3.30;99.90;;;;;;4993251;28;20026;-78
2024/01/14 12:05:41;;;;;;;119.07;50.22;;;3.30;99.90;;;;;;4994323;28;20144;-77
2024/01/14 12:08:09;;;;;;;103.80;44.70;;;3.30;99.90;;;;;;5009715;28;20409;-75
2024/01/14 12:10:35;;;;;;;110.77;46.13;;;3.30;99.90;;;;;;4977948;28;20500;-76
2024/01/14 12:13:03;;;;;;;112.38;47.95;;;3.30;99.90;;;;;;4993454;28;20043;-77
2024/01/14 12:15:30;;;;;;;107.40;45.57;;;3.30;99.90;;;;;;4960683;28;20038;-77
2024/01/14 12:17:58;;;;;;;102.50;43.17;;;3.30;99.90;;;;;;4988947;28;20030;-74
2024/01/14 12:20:25;;;;;;;117.05;46.20;;;3.30;99.90;;;;;;4976035;28;20039;-76
2024/01/14 12:23:04;;;;;;;108.70;44.90;;;3.30;99.90;;;;;;4993004;28;20038;-76
2024/01/14 12:25:32;;;;;;;98.67;41.57;;;3.30;99.90;;;;;;4977111;28;20038;-75
2024/01/14 12:27:58;;;;;;;99.28;42.03;;;3.30;99.90;;;;;;4959411;28;20037;-76
2024/01/14 12:30:32;;;;;;;96.43;40.28;;;3.40;99.90;;;;;;4960514;28;20034;-77